Time;durP1;ratioP1;P1;durP2;ratioP2;P2;SDS_P1;SDS_P2;PMS_P1;PMS_P2;Temp;Humidity;BMP_temperature;BMP_pressure;BME280_temperature;BME280_humidity;BME280_pressure;Samples;Min_cycle;Max_cycle;Signal;HPM_P1;HPM_P2
2023/11/07 00:00:05;;;;;;;10.03;6.93;;;10.00;99.90;;;;;;4919176;29;20899;-59
2023/11/07 00:02:33;;;;;;;8.00;6.50;;;10.00;99.90;;;;;;4916778;29;20475;-59
2023/11/07 00:05:02;;;;;;;9.80;7.00;;;10.00;99.90;;;;;;4918494;28;21011;-60
2023/11/07 00:07:30;;;;;;;10.23;8.00;;;9.90;99.90;;;;;;4918992;29;20469;-60
2023/11/07 00:09:59;;;;;;;9.73;7.20;;;9.90;99.90;;;;;;4916310;29;20474;-59
2023/11/07 00:12:27;;;;;;;10.20;7.33;;;9.90;99.90;;;;;;4914891;29;20539;-59
2023/11/07 00:14:56;;;;;;;9.60;7.13;;;9.90;99.90;;;;;;4919615;28;20513;-59
2023/11/07 00:17:24;;;;;;;10.17;7.23;;;9.90;99.90;;;;;;4919150;29;20480;-59
2023/11/07 00:19:52;;;;;;;9.10;7.60;;;9.90;99.90;;;;;;4920412;29;20528;-59
2023/11/07 00:22:21;;;;;;;9.23;7.63;;;9.90;99.90;;;;;;4917219;29;20471;-59
2023/11/07 00:24:49;;;;;;;7.93;7.13;;;9.90;99.90;;;;;;4917655;28;20572;-59
2023/11/07 00:27:19;;;;;;;9.13;7.10;;;9.90;99.90;;;;;;4918912;29;21061;-59
2023/11/07 00:29:47;;;;;;;8.87;7.50;;;9.80;99.90;;;;;;4917484;29;20512;-59
2023/11/07 00:32:15;;;;;;;9.93;7.10;;;9.80;99.90;;;;;;4921310;29;20478;-59
2023/11/07 00:34:43;;;;;;;7.90;6.80;;;9.80;99.90;;;;;;4914957;28;20520;-59
2023/11/07 00:37:11;;;;;;;7.90;7.00;;;9.80;99.90;;;;;;4917407;29;20475;-60
2023/11/07 00:39:39;;;;;;;10.23;7.33;;;9.80;99.90;;;;;;4920068;29;20579;-60
2023/11/07 00:42:07;;;;;;;7.67;7.00;;;9.70;99.90;;;;;;4920324;29;20924;-59
2023/11/07 00:44:36;;;;;;;8.50;7.00;;;9.70;99.90;;;;;;4917932;28;21191;-60
2023/11/07 00:47:05;;;;;;;7.67;6.83;;;9.70;99.90;;;;;;4913123;29;20483;-59
2023/11/07 00:49:33;;;;;;;8.10;7.03;;;9.60;99.90;;;;;;4914950;29;20554;-59
2023/11/07 00:52:01;;;;;;;7.80;6.60;;;9.60;99.90;;;;;;4920703;29;20984;-59
2023/11/07 00:54:29;;;;;;;8.03;6.73;;;9.70;99.90;;;;;;4923033;28;21113;-59
2023/11/07 00:56:57;;;;;;;9.37;7.10;;;9.60;99.90;;;;;;4921246;29;21082;-59
2023/11/07 00:59:25;;;;;;;7.33;6.50;;;9.60;99.90;;;;;;4924033;29;20476;-59
2023/11/07 01:01:54;;;;;;;7.37;6.63;;;9.60;99.90;;;;;;4920977;29;20582;-59
2023/11/07 01:04:23;;;;;;;7.03;6.40;;;9.60;99.90;;;;;;4917922;28;20495;-59
2023/11/07 01:06:51;;;;;;;5.90;5.33;;;9.50;99.90;;;;;;4922089;29;20476;-59
2023/11/07 01:09:20;;;;;;;7.20;6.07;;;9.60;99.90;;;;;;4922740;29;20511;-59
2023/11/07 01:11:48;;;;;;;9.17;6.17;;;9.60;99.90;;;;;;4924027;29;20551;-59
2023/11/07 01:14:16;;;;;;;8.83;5.87;;;9.60;99.90;;;;;;4921861;28;20492;-60
2023/11/07 01:16:44;;;;;;;9.30;7.33;;;9.50;99.90;;;;;;4922613;29;20539;-60
2023/11/07 01:19:13;;;;;;;11.03;6.40;;;9.50;99.90;;;;;;4921591;29;20495;-60
2023/11/07 01:21:41;;;;;;;6.87;6.17;;;9.50;99.90;;;;;;4923187;29;20905;-60
2023/11/07 01:24:10;;;;;;;9.33;6.60;;;9.50;99.90;;;;;;4919706;28;20495;-59
2023/11/07 01:26:38;;;;;;;7.77;6.97;;;9.50;99.90;;;;;;4921942;29;20558;-60
2023/11/07 01:29:05;;;;;;;10.10;6.60;;;9.60;99.90;;;;;;4922139;29;20527;-59
2023/11/07 01:31:34;;;;;;;7.13;6.33;;;9.60;99.90;;;;;;4919407;29;20571;-59
2023/11/07 01:34:01;;;;;;;6.70;6.00;;;9.60;99.90;;;;;;4921027;28;20586;-59
2023/11/07 01:36:31;;;;;;;9.33;6.70;;;9.60;99.90;;;;;;4923125;29;20584;-60
2023/11/07 01:38:59;;;;;;;6.90;6.20;;;9.60;99.90;;;;;;4921504;29;20523;-59
2023/11/07 01:41:27;;;;;;;7.90;6.13;;;9.60;99.90;;;;;;4922120;29;20482;-59
2023/11/07 01:43:55;;;;;;;9.00;6.17;;;9.60;99.90;;;;;;4923305;28;20488;-60
2023/11/07 01:46:24;;;;;;;8.97;6.40;;;9.60;99.90;;;;;;4923492;29;20559;-60
2023/11/07 01:48:52;;;;;;;7.10;6.40;;;9.60;99.90;;;;;;4918877;29;20514;-59
2023/11/07 01:51:21;;;;;;;10.57;6.53;;;9.60;99.90;;;;;;4919262;29;20476;-60
2023/11/07 01:53:52;;;;;;;6.37;5.77;;;9.60;99.90;;;;;;4918870;28;20599;-59
2023/11/07 01:56:23;;;;;;;8.83;6.33;;;9.60;99.90;;;;;;4914979;29;20484;-59
2023/11/07 01:58:54;;;;;;;9.17;6.40;;;9.60;99.90;;;;;;4919469;29;20528;-59
2023/11/07 02:01:23;;;;;;;7.47;6.60;;;9.70;99.90;;;;;;4917436;29;20643;-60
2023/11/07 02:03:52;;;;;;;8.20;6.47;;;9.60;99.90;;;;;;4917188;28;21046;-59
2023/11/07 02:06:21;;;;;;;8.53;6.53;;;9.70;99.90;;;;;;4915876;29;20487;-60
2023/11/07 02:08:49;;;;;;;7.43;6.60;;;9.70;99.90;;;;;;4920273;29;20479;-59
2023/11/07 02:11:18;;;;;;;10.13;6.93;;;9.70;99.90;;;;;;4921828;29;20535;-59
2023/11/07 02:13:48;;;;;;;8.17;7.37;;;9.70;99.90;;;;;;4920882;28;20552;-59
2023/11/07 02:16:17;;;;;;;10.13;6.97;;;9.70;99.90;;;;;;4922483;29;20919;-59
2023/11/07 02:18:45;;;;;;;8.53;6.70;;;9.70;99.90;;;;;;4918798;29;20970;-59
2023/11/07 02:21:13;;;;;;;8.10;6.50;;;9.70;99.90;;;;;;4919064;29;20505;-59
2023/11/07 02:23:43;;;;;;;11.57;7.27;;;9.70;99.90;;;;;;4920275;28;20504;-59
2023/11/07 02:26:11;;;;;;;10.50;7.33;;;9.70;99.90;;;;;;4911272;29;20487;-59
2023/11/07 02:28:39;;;;;;;8.97;6.70;;;9.70;99.90;;;;;;4918538;29;20548;-59
2023/11/07 02:31:07;;;;;;;10.10;6.83;;;9.70;99.90;;;;;;4918580;29;20475;-59
2023/11/07 02:33:37;;;;;;;11.20;7.10;;;9.70;99.90;;;;;;4916325;28;20582;-60
2023/11/07 02:36:06;;;;;;;9.83;7.00;;;9.80;99.90;;;;;;4921950;29;20564;-59
2023/11/07 02:38:34;;;;;;;7.73;6.90;;;9.70;99.90;;;;;;4921347;29;20488;-59
2023/11/07 02:41:04;;;;;;;10.33;7.10;;;9.70;99.90;;;;;;4924019;29;20828;-59
2023/11/07 02:43:32;;;;;;;8.40;7.50;;;9.70;99.90;;;;;;4920067;28;20595;-59
2023/11/07 02:46:00;;;;;;;9.57;7.50;;;9.60;99.90;;;;;;4917437;29;20468;-59
2023/11/07 02:48:28;;;;;;;8.30;6.73;;;9.60;99.90;;;;;;4918718;29;20542;-59
2023/11/07 02:50:57;;;;;;;7.30;6.27;;;9.70;99.90;;;;;;4910401;29;20649;-59
2023/11/07 02:53:25;;;;;;;7.63;6.63;;;9.70;99.90;;;;;;4909439;28;20642;-59
2023/11/07 02:55:53;;;;;;;8.90;7.13;;;9.70;99.90;;;;;;4921515;29;20587;-60
2023/11/07 02:58:23;;;;;;;7.97;6.70;;;9.70;99.90;;;;;;4909111;29;20487;-60
2023/11/07 03:00:52;;;;;;;8.33;6.93;;;9.70;99.90;;;;;;4921069;29;20476;-60
2023/11/07 03:03:20;;;;;;;8.83;6.57;;;9.70;99.90;;;;;;4916844;28;20487;-60
2023/11/07 03:05:48;;;;;;;9.00;6.43;;;9.60;99.90;;;;;;4919601;29;20468;-60
2023/11/07 03:08:17;;;;;;;6.83;6.10;;;9.60;99.90;;;;;;4918567;29;20643;-60
2023/11/07 03:10:45;;;;;;;6.73;6.00;;;9.70;99.90;;;;;;4920868;29;20472;-60
2023/11/07 03:13:14;;;;;;;7.33;6.37;;;9.70;99.90;;;;;;4919530;28;20553;-59
2023/11/07 03:15:44;;;;;;;8.10;6.50;;;9.70;99.90;;;;;;4918167;29;20492;-60
2023/11/07 03:18:12;;;;;;;9.20;7.03;;;9.70;99.90;;;;;;4919213;29;20967;-59
2023/11/07 03:20:41;;;;;;;6.97;5.77;;;9.70;99.90;;;;;;4919830;29;20468;-60
2023/11/07 03:23:09;;;;;;;8.00;6.00;;;9.70;99.90;;;;;;4919676;28;20495;-59
2023/11/07 03:25:37;;;;;;;6.87;5.90;;;9.60;99.90;;;;;;4916226;29;20556;-59
2023/11/07 03:28:05;;;;;;;10.73;5.70;;;9.60;99.90;;;;;;4920634;29;20570;-59
2023/11/07 03:30:33;;;;;;;7.00;5.80;;;9.60;99.90;;;;;;4917517;29;20959;-60
2023/11/07 03:33:02;;;;;;;10.13;6.37;;;9.60;99.90;;;;;;4921245;28;20515;-60
2023/11/07 03:35:30;;;;;;;7.80;6.57;;;9.60;99.90;;;;;;4919956;29;20492;-60
2023/11/07 03:37:58;;;;;;;7.03;6.20;;;9.60;99.90;;;;;;4919276;29;20481;-60
2023/11/07 03:40:27;;;;;;;8.13;6.27;;;9.60;99.90;;;;;;4921847;29;20919;-60
2023/11/07 03:42:55;;;;;;;6.80;5.60;;;9.60;99.90;;;;;;4918733;28;20497;-59
2023/11/07 03:45:22;;;;;;;6.13;5.53;;;9.60;99.90;;;;;;4918483;29;21146;-59
2023/11/07 03:47:50;;;;;;;7.30;5.37;;;9.60;99.90;;;;;;4920634;29;20559;-60
2023/11/07 03:50:21;;;;;;;8.30;6.33;;;9.60;99.90;;;;;;4920136;29;20476;-60
2023/11/07 03:52:49;;;;;;;7.17;5.77;;;9.60;99.90;;;;;;4919330;28;21043;-59
2023/11/07 03:55:17;;;;;;;7.50;5.97;;;9.60;99.90;;;;;;4915588;29;20504;-60
2023/11/07 03:57:45;;;;;;;13.40;6.37;;;9.60;99.90;;;;;;4918823;29;21063;-59
2023/11/07 04:00:14;;;;;;;6.77;6.10;;;9.60;99.90;;;;;;4919008;29;20478;-59
2023/11/07 04:02:42;;;;;;;6.73;5.67;;;9.60;99.90;;;;;;4918064;29;20479;-59
2023/11/07 04:05:10;;;;;;;7.00;6.37;;;9.60;99.90;;;;;;4921030;28;20558;-59
2023/11/07 04:07:40;;;;;;;7.13;5.80;;;9.70;99.90;;;;;;4916609;29;20473;-59
2023/11/07 04:10:09;;;;;;;8.17;6.33;;;9.70;99.90;;;;;;4918877;29;20544;-60
2023/11/07 04:12:37;;;;;;;9.50;5.87;;;9.70;99.90;;;;;;4917648;29;20476;-59
2023/11/07 04:15:09;;;;;;;8.97;6.50;;;9.70;99.90;;;;;;4918204;28;20494;-60
2023/11/07 04:17:37;;;;;;;10.90;5.50;;;9.70;99.90;;;;;;4917905;29;20902;-59
2023/11/07 04:20:09;;;;;;;7.30;5.87;;;9.70;99.90;;;;;;4918320;29;20656;-59
2023/11/07 04:22:38;;;;;;;10.83;6.50;;;9.70;99.90;;;;;;4916155;29;21015;-60
2023/11/07 04:25:07;;;;;;;6.70;6.00;;;9.70;99.90;;;;;;4916599;28;20586;-59
2023/11/07 04:27:35;;;;;;;7.43;6.60;;;9.70;99.90;;;;;;4913947;29;20555;-59
2023/11/07 04:30:05;;;;;;;10.13;7.33;;;9.70;99.90;;;;;;4918148;29;20562;-59
2023/11/07 04:32:34;;;;;;;8.07;5.87;;;9.80;99.90;;;;;;4916980;29;20476;-59
2023/11/07 04:35:02;;;;;;;8.83;6.67;;;9.80;99.90;;;;;;4915037;28;20483;-59
2023/11/07 04:37:30;;;;;;;6.73;5.93;;;9.80;99.90;;;;;;4918207;29;20490;-59
2023/11/07 04:40:00;;;;;;;9.07;6.13;;;9.80;99.90;;;;;;4919234;29;20563;-59
2023/11/07 04:42:28;;;;;;;7.50;6.73;;;9.80;99.90;;;;;;4918878;29;20603;-58
2023/11/07 04:44:56;;;;;;;8.43;6.70;;;9.80;99.90;;;;;;4916384;28;20576;-59
2023/11/07 04:47:24;;;;;;;7.10;6.20;;;9.90;99.90;;;;;;4919964;29;20971;-59
2023/11/07 04:49:52;;;;;;;12.70;6.87;;;9.90;99.90;;;;;;4918144;29;20494;-60
2023/11/07 04:52:20;;;;;;;10.40;6.80;;;9.90;99.90;;;;;;4920930;29;20479;-60
2023/11/07 04:54:48;;;;;;;7.63;6.83;;;9.80;99.90;;;;;;4916375;28;20484;-59
2023/11/07 04:57:18;;;;;;;9.13;6.50;;;9.80;99.90;;;;;;4920667;29;20496;-60
2023/11/07 04:59:46;;;;;;;9.20;7.57;;;9.80;99.90;;;;;;4919245;29;20564;-59
2023/11/07 05:02:14;;;;;;;8.60;7.70;;;9.80;99.90;;;;;;4911828;29;20476;-60
2023/11/07 05:04:44;;;;;;;7.83;7.07;;;9.80;99.90;;;;;;4917102;28;20526;-59
2023/11/07 05:07:12;;;;;;;8.50;6.73;;;9.80;99.90;;;;;;4917698;29;20480;-59
2023/11/07 05:09:40;;;;;;;8.50;7.50;;;9.80;99.90;;;;;;4918394;29;20563;-59
2023/11/07 05:12:08;;;;;;;8.73;7.43;;;9.80;99.90;;;;;;4919705;29;20472;-59
2023/11/07 05:14:40;;;;;;;9.40;7.70;;;9.80;99.90;;;;;;4918733;28;20554;-59
2023/11/07 05:17:08;;;;;;;7.27;6.57;;;9.80;99.90;;;;;;4919530;29;20568;-59
2023/11/07 05:19:35;;;;;;;8.93;7.20;;;9.80;99.90;;;;;;4921251;29;20487;-59
2023/11/07 05:22:04;;;;;;;10.53;8.07;;;9.80;99.90;;;;;;4920613;29;20562;-59
2023/11/07 05:24:32;;;;;;;9.17;7.23;;;9.80;99.90;;;;;;4916218;28;20927;-59
2023/11/07 05:27:00;;;;;;;9.57;7.63;;;9.80;99.90;;;;;;4914954;29;20532;-60
2023/11/07 05:29:28;;;;;;;8.97;7.90;;;9.80;99.90;;;;;;4916733;29;20484;-59
2023/11/07 05:31:58;;;;;;;9.63;8.10;;;9.80;99.90;;;;;;4913953;29;20563;-59
2023/11/07 05:34:26;;;;;;;9.90;6.87;;;9.80;99.90;;;;;;4914775;28;20571;-59
2023/11/07 05:36:55;;;;;;;10.20;8.00;;;9.80;99.90;;;;;;4917800;29;20966;-60
2023/11/07 05:39:27;;;;;;;9.47;8.30;;;9.80;99.90;;;;;;4921072;29;20507;-60
2023/11/07 05:41:55;;;;;;;9.50;7.80;;;9.80;99.90;;;;;;4921513;29;20476;-59
2023/11/07 05:44:23;;;;;;;9.17;8.27;;;9.80;99.90;;;;;;4903499;28;21140;-59
2023/11/07 05:46:53;;;;;;;9.63;7.30;;;9.80;99.90;;;;;;4918394;29;20525;-59
2023/11/07 05:49:22;;;;;;;9.60;7.27;;;9.80;99.90;;;;;;4917519;29;20563;-59
2023/11/07 05:51:52;;;;;;;9.30;7.20;;;9.80;99.90;;;;;;4914159;29;21010;-59
2023/11/07 05:54:20;;;;;;;12.10;8.07;;;9.90;99.90;;;;;;4913752;28;20860;-60
2023/11/07 05:56:48;;;;;;;10.40;7.97;;;9.90;99.90;;;;;;4921047;29;21371;-60
2023/11/07 05:59:16;;;;;;;12.17;8.17;;;9.90;99.90;;;;;;4915868;29;20475;-60
2023/11/07 06:01:44;;;;;;;10.90;8.83;;;9.90;99.90;;;;;;4920037;29;20510;-60
2023/11/07 06:04:31;;;;;;;14.33;8.17;;;9.80;99.90;;;;;;4916637;28;21987;-60
2023/11/07 06:07:00;;;;;;;9.60;8.00;;;9.80;99.90;;;;;;4918051;29;21113;-60
2023/11/07 06:09:28;;;;;;;10.43;8.27;;;9.80;99.90;;;;;;4916963;29;21062;-60
2023/11/07 06:11:56;;;;;;;9.87;8.80;;;9.80;99.90;;;;;;4914331;29;20476;-60
2023/11/07 06:14:25;;;;;;;14.07;8.33;;;9.70;99.90;;;;;;4911703;28;20949;-60
2023/11/07 06:16:53;;;;;;;13.93;8.30;;;9.70;99.90;;;;;;4911168;29;21059;-59
2023/11/07 06:19:22;;;;;;;8.87;7.63;;;9.60;99.90;;;;;;4909716;29;20480;-60
2023/11/07 06:21:51;;;;;;;9.50;8.23;;;9.60;99.90;;;;;;4899517;29;20487;-60
2023/11/07 06:24:19;;;;;;;9.87;7.70;;;9.60;99.90;;;;;;4911530;28;21090;-60
2023/11/07 06:26:48;;;;;;;9.43;8.50;;;9.50;99.90;;;;;;4915880;29;21049;-60
2023/11/07 06:29:16;;;;;;;11.53;8.30;;;9.50;99.90;;;;;;4915907;29;20502;-60
2023/11/07 06:31:45;;;;;;;10.90;7.63;;;9.50;99.90;;;;;;4918401;29;20471;-59
2023/11/07 06:34:14;;;;;;;11.30;8.03;;;9.50;99.90;;;;;;4915989;28;20587;-59
2023/11/07 06:36:43;;;;;;;8.90;8.00;;;9.50;99.90;;;;;;4918688;29;20578;-60
2023/11/07 06:39:15;;;;;;;12.43;7.60;;;9.50;99.90;;;;;;4917032;29;20476;-59
2023/11/07 06:41:43;;;;;;;12.20;8.27;;;9.50;99.90;;;;;;4921787;29;20555;-60
2023/11/07 06:44:13;;;;;;;10.77;7.73;;;9.50;99.90;;;;;;4918287;28;20487;-60
2023/11/07 06:46:42;;;;;;;10.57;7.83;;;9.50;99.90;;;;;;4918771;29;20497;-60
2023/11/07 06:49:10;;;;;;;9.80;8.07;;;9.50;99.90;;;;;;4919482;29;20480;-59
2023/11/07 06:51:38;;;;;;;9.27;7.80;;;9.50;99.90;;;;;;4916474;29;20473;-59
2023/11/07 06:54:08;;;;;;;9.13;8.00;;;9.60;99.90;;;;;;4918293;28;21082;-60
2023/11/07 06:56:38;;;;;;;8.03;6.93;;;9.70;99.90;;;;;;4919768;29;20499;-60
2023/11/07 06:59:06;;;;;;;9.67;7.30;;;9.70;99.90;;;;;;4921809;29;21008;-59
2023/11/07 07:01:35;;;;;;;9.90;7.73;;;9.60;99.90;;;;;;4922860;29;20904;-60
2023/11/07 07:04:05;;;;;;;12.17;8.50;;;9.70;99.90;;;;;;4918977;28;20577;-60
2023/11/07 07:06:35;;;;;;;9.47;7.70;;;9.70;99.90;;;;;;4922891;29;20547;-59
2023/11/07 07:09:05;;;;;;;9.03;8.13;;;9.80;99.90;;;;;;4921296;29;20471;-59
2023/11/07 07:11:33;;;;;;;10.53;8.60;;;9.80;99.90;;;;;;4922366;29;20511;-60
2023/11/07 07:14:03;;;;;;;8.60;7.70;;;9.80;99.90;;;;;;4921325;28;20587;-59
2023/11/07 07:16:32;;;;;;;8.83;7.93;;;9.90;99.90;;;;;;4923485;29;20507;-60
2023/11/07 07:19:06;;;;;;;9.30;7.87;;;9.90;99.90;;;;;;4922631;29;20977;-60
2023/11/07 07:21:35;;;;;;;10.03;7.83;;;9.90;99.90;;;;;;4922995;29;20487;-60
2023/11/07 07:24:15;;;;;;;9.00;7.90;;;9.90;99.90;;;;;;4921341;28;20930;-60
2023/11/07 07:26:44;;;;;;;9.57;8.20;;;9.90;99.90;;;;;;4922490;29;20576;-59
2023/11/07 07:29:14;;;;;;;8.10;7.20;;;9.90;99.90;;;;;;4917648;29;20822;-59
2023/11/07 07:31:43;;;;;;;9.20;8.30;;;9.90;99.90;;;;;;4920610;29;20546;-59
2023/11/07 07:34:12;;;;;;;9.43;7.37;;;10.00;99.90;;;;;;4921199;28;20587;-59
2023/11/07 07:36:44;;;;;;;11.63;8.77;;;10.00;99.90;;;;;;4923190;29;20480;-59
2023/11/07 07:39:27;;;;;;;14.10;7.77;;;10.00;99.90;;;;;;4921880;29;20832;-59
2023/11/07 07:41:56;;;;;;;9.90;7.30;;;10.00;99.90;;;;;;4922922;29;20481;-58
2023/11/07 07:44:26;;;;;;;9.90;7.53;;;10.10;99.90;;;;;;4918449;28;20488;-58
2023/11/07 07:46:56;;;;;;;8.67;7.80;;;10.10;99.90;;;;;;4920992;29;20479;-58
2023/11/07 07:49:25;;;;;;;7.57;6.87;;;10.10;99.90;;;;;;4920083;29;20819;-58
2023/11/07 07:51:54;;;;;;;12.87;7.30;;;10.10;99.90;;;;;;4921735;29;20483;-58
2023/11/07 07:54:23;;;;;;;10.80;7.10;;;10.10;99.90;;;;;;4917587;28;20936;-59
2023/11/07 07:57:11;;;;;;;8.73;7.33;;;10.10;99.90;;;;;;4918261;29;20504;-58
2023/11/07 07:59:41;;;;;;;7.90;7.10;;;10.10;99.90;;;;;;4919286;29;20526;-58
2023/11/07 08:02:11;;;;;;;8.13;7.23;;;10.10;99.90;;;;;;4912951;29;20488;-58
2023/11/07 08:04:39;;;;;;;8.63;7.00;;;10.10;99.90;;;;;;4916661;28;20619;-58
2023/11/07 08:07:07;;;;;;;10.87;7.87;;;10.20;99.90;;;;;;4916397;29;20471;-58
2023/11/07 08:09:40;;;;;;;10.80;7.33;;;10.20;99.90;;;;;;4918993;29;20475;-58
2023/11/07 08:12:10;;;;;;;7.73;6.93;;;10.20;99.90;;;;;;4915426;29;20571;-58
2023/11/07 08:14:38;;;;;;;9.07;7.73;;;10.20;99.90;;;;;;4919078;28;20492;-58
2023/11/07 08:17:09;;;;;;;12.70;6.93;;;10.20;99.90;;;;;;4915516;29;20495;-58
2023/11/07 08:19:37;;;;;;;10.03;7.20;;;10.30;99.90;;;;;;4917928;29;20482;-58
2023/11/07 08:22:06;;;;;;;7.50;6.80;;;10.30;99.90;;;;;;4918926;29;20555;-58
2023/11/07 08:24:35;;;;;;;10.20;7.30;;;10.20;99.90;;;;;;4907814;28;20499;-58
2023/11/07 08:27:04;;;;;;;9.13;7.03;;;10.20;99.90;;;;;;4915770;29;20491;-58
2023/11/07 08:29:32;;;;;;;11.23;7.03;;;10.20;99.90;;;;;;4921582;29;20463;-58
2023/11/07 08:32:00;;;;;;;8.00;7.17;;;10.30;99.90;;;;;;4910557;29;20576;-60
2023/11/07 08:34:32;;;;;;;8.70;6.30;;;10.30;99.90;;;;;;4915901;28;20485;-60
2023/11/07 08:37:01;;;;;;;10.50;7.23;;;10.30;99.90;;;;;;4919197;29;20479;-60
2023/11/07 08:39:40;;;;;;;8.47;6.90;;;10.30;99.90;;;;;;4917325;29;20483;-60
2023/11/07 08:42:08;;;;;;;10.40;7.07;;;10.30;99.90;;;;;;4912990;29;20480;-60
2023/11/07 08:44:38;;;;;;;9.63;6.77;;;10.40;99.90;;;;;;4913612;28;20529;-60
2023/11/07 08:47:07;;;;;;;12.00;6.90;;;10.40;99.90;;;;;;4919858;29;20483;-59
2023/11/07 08:49:37;;;;;;;7.30;6.60;;;10.40;99.90;;;;;;4918861;29;20479;-59
2023/11/07 08:52:06;;;;;;;11.50;7.10;;;10.40;99.90;;;;;;4919199;29;20566;-60
2023/11/07 08:54:36;;;;;;;8.70;6.70;;;10.40;99.90;;;;;;4918074;28;20929;-59
2023/11/07 08:57:05;;;;;;;9.93;6.90;;;10.40;99.90;;;;;;4918919;29;21002;-60
2023/11/07 08:59:36;;;;;;;8.70;7.03;;;10.50;99.90;;;;;;4919028;29;21104;-60
2023/11/07 09:02:04;;;;;;;9.43;6.67;;;10.50;99.90;;;;;;4914528;29;20504;-59
2023/11/07 09:04:32;;;;;;;9.30;7.00;;;10.50;99.90;;;;;;4915747;28;20500;-60
2023/11/07 09:07:03;;;;;;;11.00;7.20;;;10.50;99.90;;;;;;4918961;29;20716;-59
2023/11/07 09:09:31;;;;;;;9.93;6.67;;;10.50;99.90;;;;;;4918518;29;20571;-60
2023/11/07 09:11:59;;;;;;;8.30;6.50;;;10.60;99.90;;;;;;4914084;29;20583;-60
2023/11/07 09:14:27;;;;;;;8.93;6.30;;;10.60;99.90;;;;;;4919076;28;21106;-60
2023/11/07 09:16:55;;;;;;;11.30;8.40;;;10.60;99.90;;;;;;4921021;29;20939;-60
2023/11/07 09:19:23;;;;;;;10.57;7.20;;;10.60;99.90;;;;;;4923506;29;20536;-60
2023/11/07 09:21:52;;;;;;;6.43;5.83;;;10.70;99.90;;;;;;4920601;29;20572;-60
2023/11/07 09:24:21;;;;;;;8.10;6.37;;;10.70;99.90;;;;;;4922076;28;20520;-59
2023/11/07 09:26:49;;;;;;;11.00;6.87;;;10.70;99.90;;;;;;4918240;29;20479;-60
2023/11/07 09:29:17;;;;;;;6.53;5.83;;;10.70;99.90;;;;;;4920993;29;20477;-60
2023/11/07 09:31:45;;;;;;;6.93;6.20;;;10.70;99.90;;;;;;4916948;29;20837;-60
2023/11/07 09:34:15;;;;;;;8.80;6.70;;;10.80;99.90;;;;;;4919916;28;20575;-60
2023/11/07 09:36:43;;;;;;;6.90;5.90;;;10.90;99.90;;;;;;4920427;29;20471;-59
2023/11/07 09:39:11;;;;;;;12.10;7.53;;;10.90;99.90;;;;;;4919407;29;20567;-60
2023/11/07 09:41:42;;;;;;;8.33;7.03;;;10.90;99.90;;;;;;4919596;29;20596;-60
2023/11/07 09:44:11;;;;;;;7.40;6.70;;;10.90;99.90;;;;;;4920629;28;20986;-60
2023/11/07 09:46:41;;;;;;;8.37;6.70;;;11.00;99.90;;;;;;4922058;29;20522;-60
2023/11/07 09:49:09;;;;;;;7.60;6.60;;;11.00;99.90;;;;;;4924263;29;20555;-60
2023/11/07 09:51:38;;;;;;;8.73;6.53;;;11.00;99.90;;;;;;4918759;29;20475;-60
2023/11/07 09:54:07;;;;;;;8.13;6.73;;;11.00;99.90;;;;;;4917006;28;20576;-59
2023/11/07 09:56:39;;;;;;;8.77;6.97;;;11.00;99.90;;;;;;4919402;29;20486;-59
2023/11/07 09:59:20;;;;;;;7.50;6.70;;;11.00;99.90;;;;;;4921520;29;20626;-60
2023/11/07 10:01:49;;;;;;;11.03;6.60;;;11.00;99.90;;;;;;4917015;29;20472;-60
2023/11/07 10:04:19;;;;;;;8.13;7.37;;;11.10;99.90;;;;;;4917449;28;20495;-60
2023/11/07 10:06:48;;;;;;;7.47;6.13;;;11.00;99.90;;;;;;4921419;29;20480;-60
2023/11/07 10:09:17;;;;;;;7.60;6.67;;;11.10;99.90;;;;;;4922438;29;20476;-60
2023/11/07 10:11:45;;;;;;;7.07;6.47;;;11.00;99.90;;;;;;4923151;29;20503;-60
2023/11/07 10:14:17;;;;;;;6.50;5.90;;;11.10;99.90;;;;;;4923304;28;20494;-60
2023/11/07 10:16:45;;;;;;;6.97;6.27;;;11.10;99.90;;;;;;4921660;29;20518;-60
2023/11/07 10:19:16;;;;;;;7.03;6.33;;;11.10;99.90;;;;;;4919070;29;20500;-60
2023/11/07 10:21:44;;;;;;;7.53;6.80;;;11.10;99.90;;;;;;4920688;29;20471;-60
2023/11/07 10:24:12;;;;;;;8.00;7.20;;;11.20;99.90;;;;;;4921140;28;20994;-59
2023/11/07 10:26:58;;;;;;;9.67;7.50;;;11.20;99.90;;;;;;4919614;29;20861;-60
2023/11/07 10:29:30;;;;;;;8.93;7.70;;;11.20;99.90;;;;;;4920782;29;20475;-59
2023/11/07 10:32:09;;;;;;;7.80;7.03;;;11.20;99.90;;;;;;4918177;29;20483;-59
2023/11/07 10:34:38;;;;;;;7.87;7.07;;;11.30;99.90;;;;;;4919669;28;20614;-60
2023/11/07 10:37:06;;;;;;;8.70;6.53;;;11.40;99.90;;;;;;4920694;29;20471;-60
2023/11/07 10:39:35;;;;;;;8.60;7.77;;;11.40;99.90;;;;;;4918045;29;20559;-59
2023/11/07 10:42:20;;;;;;;7.50;6.80;;;11.50;99.90;;;;;;4919148;29;21012;-60
2023/11/07 10:45:01;;;;;;;7.90;7.10;;;11.50;99.90;;;;;;4917009;28;20496;-60
2023/11/07 10:47:35;;;;;;;8.83;7.50;;;11.60;99.90;;;;;;4919794;29;20516;-60
2023/11/07 10:50:04;;;;;;;7.20;6.50;;;11.70;99.90;;;;;;4921014;29;20574;-59
2023/11/07 10:52:32;;;;;;;8.10;6.53;;;11.80;99.90;;;;;;4922459;29;20583;-60
2023/11/07 10:55:03;;;;;;;8.00;7.03;;;11.80;99.90;;;;;;4918698;28;20484;-60
2023/11/07 10:57:34;;;;;;;7.37;6.67;;;12.00;99.90;;;;;;4918023;29;20468;-60
2023/11/07 11:00:13;;;;;;;6.93;6.33;;;12.00;99.90;;;;;;4921069;29;20503;-60
2023/11/07 11:02:42;;;;;;;8.53;7.73;;;12.10;99.90;;;;;;4921285;29;20472;-59
2023/11/07 11:05:13;;;;;;;6.17;5.73;;;12.10;99.90;;;;;;4920991;28;20568;-59
2023/11/07 11:07:49;;;;;;;7.33;6.60;;;12.10;99.90;;;;;;4916594;29;20495;-60
2023/11/07 11:10:21;;;;;;;6.73;5.87;;;12.00;99.90;;;;;;4920185;29;20709;-59
2023/11/07 11:12:51;;;;;;;7.03;6.27;;;11.90;99.90;;;;;;4921601;28;20662;-59
2023/11/07 11:15:21;;;;;;;8.53;6.40;;;11.90;99.90;;;;;;4916463;29;20568;-60
2023/11/07 11:17:55;;;;;;;5.77;5.33;;;11.80;99.90;;;;;;4920502;29;20508;-60
2023/11/07 11:20:32;;;;;;;5.93;5.43;;;11.80;99.90;;;;;;4918844;29;21096;-60
2023/11/07 11:23:08;;;;;;;7.17;5.63;;;11.80;99.90;;;;;;4918485;28;20511;-60
2023/11/07 11:25:49;;;;;;;7.20;5.97;;;11.80;99.90;;;;;;4918478;29;20574;-59
2023/11/07 11:28:17;;;;;;;6.50;5.67;;;11.80;99.90;;;;;;4918675;29;20500;-60
2023/11/07 11:30:55;;;;;;;6.20;5.30;;;11.80;99.90;;;;;;4918635;29;20555;-59
2023/11/07 11:33:26;;;;;;;5.37;4.97;;;11.90;99.90;;;;;;4908888;28;20492;-60
2023/11/07 11:35:55;;;;;;;6.90;6.30;;;11.80;99.90;;;;;;4918181;29;20653;-60
2023/11/07 11:38:39;;;;;;;8.53;5.37;;;11.80;99.90;;;;;;4917447;29;20472;-60
2023/11/07 11:41:07;;;;;;;5.73;5.10;;;11.80;99.90;;;;;;4919357;29;20503;-59
2023/11/07 11:43:56;;;;;;;5.30;4.90;;;11.80;99.90;;;;;;4913458;28;20487;-60
2023/11/07 11:46:44;;;;;;;5.20;4.67;;;11.90;99.90;;;;;;4917843;29;20954;-59
2023/11/07 11:49:16;;;;;;;4.90;4.60;;;11.90;99.90;;;;;;4918329;29;20527;-60
2023/11/07 11:51:46;;;;;;;5.33;4.67;;;11.90;99.90;;;;;;4918982;29;20503;-59
2023/11/07 11:54:16;;;;;;;4.93;4.47;;;12.00;99.90;;;;;;4918542;28;20511;-60
2023/11/07 11:57:04;;;;;;;4.67;4.27;;;12.00;99.90;;;;;;4914923;29;20472;-57
2023/11/07 11:59:53;;;;;;;5.47;4.87;;;12.00;99.90;;;;;;4917316;29;20492;-58
2023/11/07 12:02:39;;;;;;;4.73;4.33;;;12.20;99.90;;;;;;4919842;29;20474;-58
2023/11/07 12:05:16;;;;;;;3.90;3.70;;;12.30;99.90;;;;;;4919917;28;20690;-60
2023/11/07 12:07:45;;;;;;;4.87;3.63;;;12.40;99.90;;;;;;4920539;29;20555;-58
2023/11/07 12:10:20;;;;;;;3.47;3.17;;;13.00;99.90;;;;;;4918882;29;20488;-59
2023/11/07 12:13:06;;;;;;;4.60;3.50;;;13.60;99.90;;;;;;4916251;28;21087;-59
2023/11/07 12:15:34;;;;;;;3.70;3.40;;;13.60;99.90;;;;;;4919191;29;20504;-59
2023/11/07 12:18:04;;;;;;;3.87;3.40;;;13.40;99.90;;;;;;4879962;29;1182599;-59
2023/11/07 12:20:41;;;;;;;3.83;3.40;;;13.20;99.90;;;;;;4909473;29;20239;-58
2023/11/07 12:23:13;;;;;;;6.70;3.60;;;13.00;99.90;;;;;;4910235;28;20496;-58
2023/11/07 12:25:50;;;;;;;4.33;3.50;;;12.90;99.90;;;;;;4913038;29;20471;-59
2023/11/07 12:28:18;;;;;;;4.00;3.70;;;12.80;99.90;;;;;;4908093;29;20658;-58
2023/11/07 12:30:55;;;;;;;4.20;3.90;;;12.70;99.90;;;;;;4917685;29;20480;-58
2023/11/07 12:33:24;;;;;;;3.70;3.40;;;12.60;99.90;;;;;;4916334;28;20496;-58
2023/11/07 12:35:55;;;;;;;4.87;3.60;;;12.60;99.90;;;;;;4913896;29;20630;-58
2023/11/07 12:38:24;;;;;;;3.93;3.63;;;12.50;99.90;;;;;;4917191;29;20475;-58
2023/11/07 12:40:52;;;;;;;4.90;3.67;;;12.40;99.90;;;;;;4919669;29;20635;-58
2023/11/07 12:43:21;;;;;;;3.60;3.30;;;12.40;99.90;;;;;;4915611;28;20488;-61
2023/11/07 12:45:50;;;;;;;4.27;3.87;;;12.30;99.90;;;;;;4919326;29;20508;-62
2023/11/07 12:48:26;;;;;;;3.80;3.50;;;12.30;99.90;;;;;;4918475;29;21048;-61
2023/11/07 12:50:55;;;;;;;5.10;4.00;;;12.30;99.90;;;;;;4920272;29;20476;-61
2023/11/07 12:53:23;;;;;;;3.90;3.50;;;12.20;99.90;;;;;;4914985;28;20503;-59
2023/11/07 12:55:51;;;;;;;4.43;4.03;;;12.20;99.90;;;;;;4914816;29;20479;-58
2023/11/07 12:58:28;;;;;;;7.60;3.57;;;12.10;99.90;;;;;;4912764;29;20472;-58
2023/11/07 13:00:57;;;;;;;4.67;3.23;;;12.10;99.90;;;;;;4915399;29;20502;-58
2023/11/07 13:03:31;;;;;;;3.40;3.20;;;12.10;99.90;;;;;;4911913;28;20571;-58